createdAt,value
2016-07-15T00:00:15.585Z,1007.38
2016-07-15T00:15:12.844Z,1007.33
2016-07-15T00:30:15.067Z,1007.25
2016-07-15T01:00:04.657Z,1007.32
2016-07-15T01:15:04.714Z,1007.43
2016-07-15T01:30:06.679Z,1007.42
2016-07-15T01:45:04.675Z,1007.44
2016-07-15T02:00:06.675Z,1007.6
2016-07-15T02:15:10.963Z,1007.7
2016-07-15T02:30:10.901Z,1007.71
2016-07-15T02:45:04.690Z,1007.94
2016-07-15T03:00:09.285Z,1007.92
2016-07-15T03:15:09.285Z,1008.04
2016-07-15T03:30:04.737Z,1008.04
2016-07-15T03:45:04.699Z,1008.06
2016-07-15T04:00:21.852Z,1008.1
2016-07-15T04:15:09.303Z,1008.19
2016-07-15T04:30:06.851Z,1008.35
2016-07-15T04:45:09.324Z,1008.39
2016-07-15T05:00:04.737Z,1008.58
2016-07-15T05:15:10.947Z,1008.48
2016-07-15T05:30:09.373Z,1008.66
2016-07-15T05:45:10.943Z,1008.88
2016-07-15T06:00:10.973Z,1008.92
2016-07-15T06:15:04.751Z,1009.03
2016-07-15T06:30:04.754Z,1009.13
2016-07-15T06:45:06.835Z,1009.37
2016-07-15T07:00:09.344Z,1009.5
2016-07-15T07:15:09.370Z,1009.73
2016-07-15T07:30:09.382Z,1009.88
2016-07-15T07:45:09.607Z,1009.98
2016-07-15T08:00:09.770Z,1010.17
2016-07-15T08:15:04.792Z,1010.17
2016-07-15T08:30:16.145Z,1010.39
2016-07-15T08:45:04.790Z,1010.37
2016-07-15T09:00:04.846Z,1010.44
2016-07-15T09:15:09.528Z,1010.59
2016-07-15T09:30:13.397Z,1010.44
2016-07-15T09:45:09.398Z,1010.54
2016-07-15T10:00:09.890Z,1010.58
2016-07-15T10:15:11.044Z,1010.4
2016-07-15T10:30:17.856Z,1010.53
2016-07-15T10:45:04.824Z,1010.72
2016-07-15T11:00:11.174Z,1010.9
2016-07-15T11:15:11.148Z,1011.11
2016-07-15T11:30:09.435Z,1011.24
2016-07-15T11:45:19.375Z,1011.3
2016-07-15T12:00:11.090Z,1011.46
2016-07-15T12:15:09.593Z,1011.45
2016-07-15T12:30:09.902Z,1011.47
2016-07-15T12:45:09.883Z,1011.6
2016-07-15T13:00:11.115Z,1011.52
2016-07-15T13:15:09.918Z,1011.49
2016-07-15T13:30:09.429Z,1011.58
2016-07-15T13:45:09.446Z,1011.76
2016-07-15T14:00:10.420Z,1011.61
2016-07-15T14:15:09.499Z,1011.48
2016-07-15T14:30:10.274Z,1011.61
2016-07-15T14:45:09.842Z,1011.53
2016-07-15T15:00:09.466Z,1011.33
2016-07-15T15:15:16.181Z,1011.43
2016-07-15T15:30:11.184Z,1011.6
2016-07-15T15:45:11.195Z,1011.64
2016-07-15T16:00:09.499Z,1011.58
2016-07-15T16:15:04.913Z,1011.5
2016-07-15T16:30:04.941Z,1011.39
2016-07-15T16:45:04.911Z,1011.52
2016-07-15T17:00:04.901Z,1011.64
2016-07-15T17:15:11.156Z,1011.65
2016-07-15T17:30:07.039Z,1011.69
2016-07-15T17:45:09.528Z,1011.89
2016-07-15T18:00:15.645Z,1011.91
2016-07-15T18:30:04.956Z,1011.88
2016-07-15T18:45:09.551Z,1011.85
2016-07-15T19:00:09.376Z,1011.95
2016-07-15T19:15:09.541Z,1012
2016-07-15T19:30:09.584Z,1012.06
2016-07-15T19:45:09.565Z,1012.27
2016-07-15T20:00:08.723Z,1012.34
2016-07-15T20:15:09.586Z,1012.25
2016-07-15T20:30:07.068Z,1012.3
2016-07-15T20:45:07.110Z,1012.21
2016-07-15T21:00:13.233Z,1012.25
2016-07-15T21:15:04.985Z,1012.09
2016-07-15T21:30:11.180Z,1012.18
2016-07-15T21:45:09.619Z,1012.18
2016-07-15T22:00:04.971Z,1012.02
2016-07-15T22:15:05.017Z,1012.08
2016-07-15T22:30:22.101Z,1012.14
2016-07-15T22:45:11.233Z,1012.06
2016-07-15T23:00:04.972Z,1012.1
2016-07-15T23:15:09.615Z,1012.2
2016-07-15T23:30:09.581Z,1012.07
2016-07-15T23:45:04.978Z,1012.02
